Карточка аэропорта UNKL

Внимание!
Информация на этой странице в стадии наполнения.
Если вы не увидели какой-то информации, или заметили неточность - пожалуйста сообщите нам!
Спасибо!
Команда RU-STAFF
Название аэропортаЕмельяново
Название аэропорта (англ.)Yemelyanovo
Превышение942 ft. (287.1 m.)
Координаты56°10.386', 92°29.598'
Высота перехода7500ft
Эшелон переходаFL090
Коды ответчика5320-5377
Зона ОрВДКрасноярск РПИ (UNKL)
Данные METARUNKL 181130Z 24003MPS 9999 FEW047CB 10/04 Q1016 R29/290055 NOSIG RMK QFE736
Проноз погоды (TAF)UNKL 180749Z 1809/1909 26007G16MPS 9999 SCT020CB BECMG 1812/1815 19003G08MPS BECMG 1900/1903 19008G18MPS BECMG 1905/1907 27008G18MPS
NOTAMshow/hide NOTAM
AWOS   TABLE

Информация о ВПП

ВПП Длина ВПП (м.) Покрытие Курс ВПП Частота ILS
293700Асфальтобетон289111.7
113700Асфальтобетон109110.5

Диспетчерские позиции

Позывной Наименование органа УВД Частота
UNKL_GNDКрасноярск-Руление121.9
UNKL_APPКрасноярск-Подход127.7
UNKL_R_APPКрасноярск-Круг122.0
UNKL_TWRКрасноярск-Вышка118.3



Спутниковое изображение